sensor_id;sensor_type;location;lat;lon;timestamp;temperature;humidity
16174;DHT22;14031;50.158;8.626;2023-12-22T00:02:18;5.60;99.90
16174;DHT22;14031;50.158;8.626;2023-12-22T00:04:46;5.60;99.90
16174;DHT22;14031;50.158;8.626;2023-12-22T00:07:13;5.60;99.90
16174;DHT22;14031;50.158;8.626;2023-12-22T00:09:40;5.60;99.90
16174;DHT22;14031;50.158;8.626;2023-12-22T00:12:07;5.60;99.90
16174;DHT22;14031;50.158;8.626;2023-12-22T00:14:34;5.70;99.90
16174;DHT22;14031;50.158;8.626;2023-12-22T00:17:00;5.70;99.90
16174;DHT22;14031;50.158;8.626;2023-12-22T00:19:27;5.60;99.90
16174;DHT22;14031;50.158;8.626;2023-12-22T00:21:55;5.60;99.90
16174;DHT22;14031;50.158;8.626;2023-12-22T00:24:23;5.60;99.90
16174;DHT22;14031;50.158;8.626;2023-12-22T00:26:50;5.50;99.90
16174;DHT22;14031;50.158;8.626;2023-12-22T00:29:17;5.60;99.90
16174;DHT22;14031;50.158;8.626;2023-12-22T00:31:43;5.60;99.90
16174;DHT22;14031;50.158;8.626;2023-12-22T00:34:10;5.50;99.90
16174;DHT22;14031;50.158;8.626;2023-12-22T00:36:37;5.50;99.90
16174;DHT22;14031;50.158;8.626;2023-12-22T00:39:05;5.50;99.90
16174;DHT22;14031;50.158;8.626;2023-12-22T00:41:33;5.50;99.90
16174;DHT22;14031;50.158;8.626;2023-12-22T00:43:59;5.40;99.90
16174;DHT22;14031;50.158;8.626;2023-12-22T00:46:26;5.40;99.90
16174;DHT22;14031;50.158;8.626;2023-12-22T00:48:53;5.30;99.90
16174;DHT22;14031;50.158;8.626;2023-12-22T00:51:20;5.30;99.90
16174;DHT22;14031;50.158;8.626;2023-12-22T00:53:46;5.30;99.90
16174;DHT22;14031;50.158;8.626;2023-12-22T00:56:14;5.30;99.90
16174;DHT22;14031;50.158;8.626;2023-12-22T00:58:41;5.40;99.90
16174;DHT22;14031;50.158;8.626;2023-12-22T01:01:08;5.40;99.90
16174;DHT22;14031;50.158;8.626;2023-12-22T01:03:35;5.40;99.90
16174;DHT22;14031;50.158;8.626;2023-12-22T01:06:02;5.50;99.90
16174;DHT22;14031;50.158;8.626;2023-12-22T01:08:29;5.50;99.90
16174;DHT22;14031;50.158;8.626;2023-12-22T01:10:55;5.50;99.90
16174;DHT22;14031;50.158;8.626;2023-12-22T01:13:23;5.50;99.90
16174;DHT22;14031;50.158;8.626;2023-12-22T01:15:50;5.60;99.90
16174;DHT22;14031;50.158;8.626;2023-12-22T01:18:17;5.50;99.90
16174;DHT22;14031;50.158;8.626;2023-12-22T01:20:44;5.60;99.90
16174;DHT22;14031;50.158;8.626;2023-12-22T01:23:10;5.70;99.90
16174;DHT22;14031;50.158;8.626;2023-12-22T01:25:37;5.60;99.90
16174;DHT22;14031;50.158;8.626;2023-12-22T01:28:04;5.60;99.90
16174;DHT22;14031;50.158;8.626;2023-12-22T01:30:32;5.40;99.90
16174;DHT22;14031;50.158;8.626;2023-12-22T01:32:59;5.20;99.90
16174;DHT22;14031;50.158;8.626;2023-12-22T01:35:26;5.10;99.90
16174;DHT22;14031;50.158;8.626;2023-12-22T01:37:54;5.00;99.90
16174;DHT22;14031;50.158;8.626;2023-12-22T01:40:22;5.00;99.90
16174;DHT22;14031;50.158;8.626;2023-12-22T01:42:49;5.00;99.90
16174;DHT22;14031;50.158;8.626;2023-12-22T01:45:15;5.10;99.90
16174;DHT22;14031;50.158;8.626;2023-12-22T01:47:45;5.00;99.90
16174;DHT22;14031;50.158;8.626;2023-12-22T01:50:13;5.00;99.90
16174;DHT22;14031;50.158;8.626;2023-12-22T01:52:41;5.00;99.90
16174;DHT22;14031;50.158;8.626;2023-12-22T01:55:10;5.10;99.90
16174;DHT22;14031;50.158;8.626;2023-12-22T01:57:38;5.10;99.90
16174;DHT22;14031;50.158;8.626;2023-12-22T02:00:07;5.10;99.90
16174;DHT22;14031;50.158;8.626;2023-12-22T02:02:34;5.10;99.90
16174;DHT22;14031;50.158;8.626;2023-12-22T02:05:02;5.10;99.90
16174;DHT22;14031;50.158;8.626;2023-12-22T02:07:29;5.00;99.90
16174;DHT22;14031;50.158;8.626;2023-12-22T02:09:56;5.10;99.90
16174;DHT22;14031;50.158;8.626;2023-12-22T02:12:23;5.00;99.90
16174;DHT22;14031;50.158;8.626;2023-12-22T02:14:50;5.00;99.90
16174;DHT22;14031;50.158;8.626;2023-12-22T02:17:21;4.90;99.90
16174;DHT22;14031;50.158;8.626;2023-12-22T02:19:51;4.90;99.90
16174;DHT22;14031;50.158;8.626;2023-12-22T02:22:19;4.90;99.90
16174;DHT22;14031;50.158;8.626;2023-12-22T02:24:47;4.80;99.90
16174;DHT22;14031;50.158;8.626;2023-12-22T02:27:23;4.70;99.90
16174;DHT22;14031;50.158;8.626;2023-12-22T02:29:54;4.70;99.90
16174;DHT22;14031;50.158;8.626;2023-12-22T02:32:27;4.70;99.90
16174;DHT22;14031;50.158;8.626;2023-12-22T02:34:56;4.60;99.90
16174;DHT22;14031;50.158;8.626;2023-12-22T02:37:24;4.60;99.90
16174;DHT22;14031;50.158;8.626;2023-12-22T02:39:54;4.60;99.90
16174;DHT22;14031;50.158;8.626;2023-12-22T02:42:21;4.60;99.90
16174;DHT22;14031;50.158;8.626;2023-12-22T02:44:55;4.70;99.90
16174;DHT22;14031;50.158;8.626;2023-12-22T02:47:22;4.70;99.90
16174;DHT22;14031;50.158;8.626;2023-12-22T02:49:49;4.60;99.90
16174;DHT22;14031;50.158;8.626;2023-12-22T02:52:16;4.70;99.90
16174;DHT22;14031;50.158;8.626;2023-12-22T02:54:42;4.60;99.90
16174;DHT22;14031;50.158;8.626;2023-12-22T02:57:10;4.50;99.90
16174;DHT22;14031;50.158;8.626;2023-12-22T02:59:37;4.50;99.90
16174;DHT22;14031;50.158;8.626;2023-12-22T03:02:04;4.30;99.90
16174;DHT22;14031;50.158;8.626;2023-12-22T03:04:31;4.30;99.90
16174;DHT22;14031;50.158;8.626;2023-12-22T03:06:58;4.20;99.90
16174;DHT22;14031;50.158;8.626;2023-12-22T03:09:24;4.20;99.90
16174;DHT22;14031;50.158;8.626;2023-12-22T03:11:51;4.20;99.90
16174;DHT22;14031;50.158;8.626;2023-12-22T03:14:21;4.20;99.90
16174;DHT22;14031;50.158;8.626;2023-12-22T03:16:48;4.20;99.90
16174;DHT22;14031;50.158;8.626;2023-12-22T03:19:14;4.20;99.90
16174;DHT22;14031;50.158;8.626;2023-12-22T03:21:41;4.30;99.90
16174;DHT22;14031;50.158;8.626;2023-12-22T03:24:08;4.30;99.90
16174;DHT22;14031;50.158;8.626;2023-12-22T03:26:34;4.40;99.90
16174;DHT22;14031;50.158;8.626;2023-12-22T03:29:01;4.50;99.90
16174;DHT22;14031;50.158;8.626;2023-12-22T03:31:29;4.60;99.90
16174;DHT22;14031;50.158;8.626;2023-12-22T03:33:56;4.60;99.90
16174;DHT22;14031;50.158;8.626;2023-12-22T03:36:23;4.50;99.90
16174;DHT22;14031;50.158;8.626;2023-12-22T03:38:49;4.60;99.90
16174;DHT22;14031;50.158;8.626;2023-12-22T03:41:16;4.60;99.90
16174;DHT22;14031;50.158;8.626;2023-12-22T03:43:43;4.60;99.90
16174;DHT22;14031;50.158;8.626;2023-12-22T03:46:10;4.70;99.90
16174;DHT22;14031;50.158;8.626;2023-12-22T03:48:38;4.80;99.90
16174;DHT22;14031;50.158;8.626;2023-12-22T03:51:04;4.90;99.90
16174;DHT22;14031;50.158;8.626;2023-12-22T03:53:31;5.00;99.90
16174;DHT22;14031;50.158;8.626;2023-12-22T03:55:58;5.10;99.90
16174;DHT22;14031;50.158;8.626;2023-12-22T03:58:24;5.10;99.90
16174;DHT22;14031;50.158;8.626;2023-12-22T04:00:51;5.00;99.90
16174;DHT22;14031;50.158;8.626;2023-12-22T04:03:18;5.00;99.90
16174;DHT22;14031;50.158;8.626;2023-12-22T04:05:46;4.90;99.90
16174;DHT22;14031;50.158;8.626;2023-12-22T04:08:13;4.90;99.90
16174;DHT22;14031;50.158;8.626;2023-12-22T04:10:40;4.90;99.90
16174;DHT22;14031;50.158;8.626;2023-12-22T04:13:09;4.90;99.90
16174;DHT22;14031;50.158;8.626;2023-12-22T04:15:35;4.90;99.90
16174;DHT22;14031;50.158;8.626;2023-12-22T04:18:02;5.00;99.90
16174;DHT22;14031;50.158;8.626;2023-12-22T04:20:29;5.10;99.90
16174;DHT22;14031;50.158;8.626;2023-12-22T04:22:58;5.20;99.90
16174;DHT22;14031;50.158;8.626;2023-12-22T04:25:25;5.20;99.90
16174;DHT22;14031;50.158;8.626;2023-12-22T04:27:52;5.30;99.90
16174;DHT22;14031;50.158;8.626;2023-12-22T04:30:18;5.30;99.90
16174;DHT22;14031;50.158;8.626;2023-12-22T04:32:45;5.40;99.90
16174;DHT22;14031;50.158;8.626;2023-12-22T04:35:12;5.50;99.90
16174;DHT22;14031;50.158;8.626;2023-12-22T04:37:38;5.60;99.90
16174;DHT22;14031;50.158;8.626;2023-12-22T04:40:07;5.60;99.90
16174;DHT22;14031;50.158;8.626;2023-12-22T04:42:34;5.60;99.90
16174;DHT22;14031;50.158;8.626;2023-12-22T04:45:01;5.50;99.90
16174;DHT22;14031;50.158;8.626;2023-12-22T04:47:28;5.60;99.90
16174;DHT22;14031;50.158;8.626;2023-12-22T04:49:55;5.60;99.90
16174;DHT22;14031;50.158;8.626;2023-12-22T04:52:21;5.60;99.90
16174;DHT22;14031;50.158;8.626;2023-12-22T04:54:49;5.80;99.90
16174;DHT22;14031;50.158;8.626;2023-12-22T04:57:17;5.80;99.90
16174;DHT22;14031;50.158;8.626;2023-12-22T04:59:44;5.90;99.90
16174;DHT22;14031;50.158;8.626;2023-12-22T05:02:10;5.90;99.90
16174;DHT22;14031;50.158;8.626;2023-12-22T05:04:37;5.90;99.90
16174;DHT22;14031;50.158;8.626;2023-12-22T05:07:04;5.90;99.90
16174;DHT22;14031;50.158;8.626;2023-12-22T05:09:32;5.90;99.90
16174;DHT22;14031;50.158;8.626;2023-12-22T05:11:59;5.80;99.90
16174;DHT22;14031;50.158;8.626;2023-12-22T05:14:27;5.90;99.90
16174;DHT22;14031;50.158;8.626;2023-12-22T05:16:54;5.90;99.90
16174;DHT22;14031;50.158;8.626;2023-12-22T05:19:22;5.80;99.90
16174;DHT22;14031;50.158;8.626;2023-12-22T05:21:49;5.90;99.90
16174;DHT22;14031;50.158;8.626;2023-12-22T05:24:18;5.80;99.90
16174;DHT22;14031;50.158;8.626;2023-12-22T05:26:44;5.80;99.90
16174;DHT22;14031;50.158;8.626;2023-12-22T05:29:11;5.70;99.90
16174;DHT22;14031;50.158;8.626;2023-12-22T05:31:39;5.80;99.90
16174;DHT22;14031;50.158;8.626;2023-12-22T05:34:06;5.90;99.90
16174;DHT22;14031;50.158;8.626;2023-12-22T05:36:33;5.80;99.90
16174;DHT22;14031;50.158;8.626;2023-12-22T05:39:00;5.70;99.90
16174;DHT22;14031;50.158;8.626;2023-12-22T05:41:27;5.60;99.90
16174;DHT22;14031;50.158;8.626;2023-12-22T05:43:54;5.70;99.90
16174;DHT22;14031;50.158;8.626;2023-12-22T05:46:20;5.60;99.90
16174;DHT22;14031;50.158;8.626;2023-12-22T05:48:49;5.60;99.90
16174;DHT22;14031;50.158;8.626;2023-12-22T05:51:15;5.50;99.90
16174;DHT22;14031;50.158;8.626;2023-12-22T05:53:42;5.50;99.90
16174;DHT22;14031;50.158;8.626;2023-12-22T05:56:17;5.50;99.90
16174;DHT22;14031;50.158;8.626;2023-12-22T05:58:44;5.60;99.90
16174;DHT22;14031;50.158;8.626;2023-12-22T06:01:14;5.60;99.90
16174;DHT22;14031;50.158;8.626;2023-12-22T06:03:42;5.60;99.90
16174;DHT22;14031;50.158;8.626;2023-12-22T06:06:10;5.60;99.90
16174;DHT22;14031;50.158;8.626;2023-12-22T06:08:37;5.50;99.90
16174;DHT22;14031;50.158;8.626;2023-12-22T06:11:03;5.70;99.90
16174;DHT22;14031;50.158;8.626;2023-12-22T06:13:30;5.80;99.90
16174;DHT22;14031;50.158;8.626;2023-12-22T06:15:57;5.90;99.90
16174;DHT22;14031;50.158;8.626;2023-12-22T06:18:24;6.10;99.90
16174;DHT22;14031;50.158;8.626;2023-12-22T06:20:52;6.10;99.90
16174;DHT22;14031;50.158;8.626;2023-12-22T06:23:21;6.20;99.90
16174;DHT22;14031;50.158;8.626;2023-12-22T06:25:48;6.30;99.90
16174;DHT22;14031;50.158;8.626;2023-12-22T06:28:14;6.40;99.90
16174;DHT22;14031;50.158;8.626;2023-12-22T06:30:43;6.50;99.90
16174;DHT22;14031;50.158;8.626;2023-12-22T06:33:10;6.50;99.90
16174;DHT22;14031;50.158;8.626;2023-12-22T06:35:37;6.50;99.90
16174;DHT22;14031;50.158;8.626;2023-12-22T06:38:06;6.60;99.90
16174;DHT22;14031;50.158;8.626;2023-12-22T06:40:34;6.60;99.90
16174;DHT22;14031;50.158;8.626;2023-12-22T06:43:01;6.60;99.90
16174;DHT22;14031;50.158;8.626;2023-12-22T06:45:28;6.50;99.90
16174;DHT22;14031;50.158;8.626;2023-12-22T06:47:55;6.50;99.90
16174;DHT22;14031;50.158;8.626;2023-12-22T06:50:22;6.50;99.90
16174;DHT22;14031;50.158;8.626;2023-12-22T06:52:48;6.50;99.90
16174;DHT22;14031;50.158;8.626;2023-12-22T06:55:16;6.60;99.90
16174;DHT22;14031;50.158;8.626;2023-12-22T06:57:44;6.50;99.90
16174;DHT22;14031;50.158;8.626;2023-12-22T07:00:12;6.60;99.90
16174;DHT22;14031;50.158;8.626;2023-12-22T07:02:39;6.60;99.90
16174;DHT22;14031;50.158;8.626;2023-12-22T07:05:34;6.70;99.90
16174;DHT22;14031;50.158;8.626;2023-12-22T07:08:04;6.60;99.90
16174;DHT22;14031;50.158;8.626;2023-12-22T07:10:31;6.60;99.90
16174;DHT22;14031;50.158;8.626;2023-12-22T07:12:59;6.60;99.90
16174;DHT22;14031;50.158;8.626;2023-12-22T07:15:26;6.60;99.90
16174;DHT22;14031;50.158;8.626;2023-12-22T07:17:54;6.70;99.90
16174;DHT22;14031;50.158;8.626;2023-12-22T07:20:20;6.80;99.90
16174;DHT22;14031;50.158;8.626;2023-12-22T07:22:47;6.90;99.90
16174;DHT22;14031;50.158;8.626;2023-12-22T07:25:14;6.90;99.90
16174;DHT22;14031;50.158;8.626;2023-12-22T07:27:41;6.70;99.90
16174;DHT22;14031;50.158;8.626;2023-12-22T07:30:10;6.80;99.90
16174;DHT22;14031;50.158;8.626;2023-12-22T07:32:42;6.90;99.90
16174;DHT22;14031;50.158;8.626;2023-12-22T07:35:09;6.90;99.90
16174;DHT22;14031;50.158;8.626;2023-12-22T07:37:36;6.90;99.90
16174;DHT22;14031;50.158;8.626;2023-12-22T07:40:03;7.10;99.90
16174;DHT22;14031;50.158;8.626;2023-12-22T07:42:30;7.10;99.90
16174;DHT22;14031;50.158;8.626;2023-12-22T07:44:57;7.20;99.90
16174;DHT22;14031;50.158;8.626;2023-12-22T07:47:25;7.20;99.90
16174;DHT22;14031;50.158;8.626;2023-12-22T07:49:52;7.20;99.90
16174;DHT22;14031;50.158;8.626;2023-12-22T07:52:18;7.30;99.90
16174;DHT22;14031;50.158;8.626;2023-12-22T07:54:45;7.30;99.90
16174;DHT22;14031;50.158;8.626;2023-12-22T07:57:12;7.30;99.90
16174;DHT22;14031;50.158;8.626;2023-12-22T07:59:39;7.20;99.90
16174;DHT22;14031;50.158;8.626;2023-12-22T08:02:06;7.10;99.90
16174;DHT22;14031;50.158;8.626;2023-12-22T08:04:34;7.10;99.90
16174;DHT22;14031;50.158;8.626;2023-12-22T08:07:01;7.10;99.90
16174;DHT22;14031;50.158;8.626;2023-12-22T08:09:28;7.20;99.90
16174;DHT22;14031;50.158;8.626;2023-12-22T08:11:55;7.30;99.90
16174;DHT22;14031;50.158;8.626;2023-12-22T08:14:22;7.50;99.90
16174;DHT22;14031;50.158;8.626;2023-12-22T08:16:49;7.60;99.90
16174;DHT22;14031;50.158;8.626;2023-12-22T08:19:16;7.70;99.90
16174;DHT22;14031;50.158;8.626;2023-12-22T08:21:44;7.70;99.90
16174;DHT22;14031;50.158;8.626;2023-12-22T08:24:10;7.70;99.90
16174;DHT22;14031;50.158;8.626;2023-12-22T08:26:37;7.70;99.90
16174;DHT22;14031;50.158;8.626;2023-12-22T08:29:04;7.70;99.90
16174;DHT22;14031;50.158;8.626;2023-12-22T08:31:33;7.70;99.90
16174;DHT22;14031;50.158;8.626;2023-12-22T08:34:00;7.70;99.90
16174;DHT22;14031;50.158;8.626;2023-12-22T08:36:27;7.70;99.90
16174;DHT22;14031;50.158;8.626;2023-12-22T08:38:55;7.70;99.90
16174;DHT22;14031;50.158;8.626;2023-12-22T08:41:22;7.60;99.90
16174;DHT22;14031;50.158;8.626;2023-12-22T08:43:48;7.70;99.90
16174;DHT22;14031;50.158;8.626;2023-12-22T08:46:15;7.60;99.90
16174;DHT22;14031;50.158;8.626;2023-12-22T08:48:43;7.50;99.90
16174;DHT22;14031;50.158;8.626;2023-12-22T08:51:10;7.40;99.90
16174;DHT22;14031;50.158;8.626;2023-12-22T08:53:37;7.40;99.90
16174;DHT22;14031;50.158;8.626;2023-12-22T08:56:05;7.40;99.90
16174;DHT22;14031;50.158;8.626;2023-12-22T08:58:33;7.30;99.90
16174;DHT22;14031;50.158;8.626;2023-12-22T09:00:59;7.30;99.90
16174;DHT22;14031;50.158;8.626;2023-12-22T09:03:26;7.30;99.90
16174;DHT22;14031;50.158;8.626;2023-12-22T09:05:53;7.20;99.90
16174;DHT22;14031;50.158;8.626;2023-12-22T09:08:20;7.20;99.90
16174;DHT22;14031;50.158;8.626;2023-12-22T09:10:47;7.20;99.90
16174;DHT22;14031;50.158;8.626;2023-12-22T09:13:16;7.10;99.90
16174;DHT22;14031;50.158;8.626;2023-12-22T09:15:43;7.00;99.90
16174;DHT22;14031;50.158;8.626;2023-12-22T09:18:12;7.00;99.90
16174;DHT22;14031;50.158;8.626;2023-12-22T09:20:39;7.00;99.90
16174;DHT22;14031;50.158;8.626;2023-12-22T09:23:06;7.10;99.90
16174;DHT22;14031;50.158;8.626;2023-12-22T09:25:33;7.10;99.90
16174;DHT22;14031;50.158;8.626;2023-12-22T09:28:00;7.10;99.90
16174;DHT22;14031;50.158;8.626;2023-12-22T09:30:28;7.20;99.90
16174;DHT22;14031;50.158;8.626;2023-12-22T09:32:55;7.30;99.90
16174;DHT22;14031;50.158;8.626;2023-12-22T09:35:21;7.20;99.90
16174;DHT22;14031;50.158;8.626;2023-12-22T09:37:50;7.30;99.90
16174;DHT22;14031;50.158;8.626;2023-12-22T09:40:17;7.50;99.90
16174;DHT22;14031;50.158;8.626;2023-12-22T09:42:44;7.40;99.90
16174;DHT22;14031;50.158;8.626;2023-12-22T09:45:12;7.40;99.90
16174;DHT22;14031;50.158;8.626;2023-12-22T09:47:41;7.50;99.90
16174;DHT22;14031;50.158;8.626;2023-12-22T09:50:10;7.60;99.90
16174;DHT22;14031;50.158;8.626;2023-12-22T09:52:38;7.60;99.90
16174;DHT22;14031;50.158;8.626;2023-12-22T09:55:07;7.60;99.90
16174;DHT22;14031;50.158;8.626;2023-12-22T09:57:36;7.60;99.90
16174;DHT22;14031;50.158;8.626;2023-12-22T10:00:05;7.60;99.90
16174;DHT22;14031;50.158;8.626;2023-12-22T10:02:33;7.60;99.90
16174;DHT22;14031;50.158;8.626;2023-12-22T10:05:02;7.60;99.90
16174;DHT22;14031;50.158;8.626;2023-12-22T10:07:30;7.60;99.90
16174;DHT22;14031;50.158;8.626;2023-12-22T10:09:57;7.70;99.90
16174;DHT22;14031;50.158;8.626;2023-12-22T10:12:27;7.70;99.90
16174;DHT22;14031;50.158;8.626;2023-12-22T10:14:56;7.70;99.90
16174;DHT22;14031;50.158;8.626;2023-12-22T10:17:23;7.80;99.90
16174;DHT22;14031;50.158;8.626;2023-12-22T10:19:50;7.90;99.90
16174;DHT22;14031;50.158;8.626;2023-12-22T10:22:18;7.80;99.90
16174;DHT22;14031;50.158;8.626;2023-12-22T10:24:48;7.90;99.90
16174;DHT22;14031;50.158;8.626;2023-12-22T10:27:16;7.90;99.90
16174;DHT22;14031;50.158;8.626;2023-12-22T10:29:48;8.10;99.90
16174;DHT22;14031;50.158;8.626;2023-12-22T10:32:14;7.90;99.90
16174;DHT22;14031;50.158;8.626;2023-12-22T10:34:41;7.90;99.90
16174;DHT22;14031;50.158;8.626;2023-12-22T10:37:09;7.90;99.90
16174;DHT22;14031;50.158;8.626;2023-12-22T10:39:37;7.90;99.90
16174;DHT22;14031;50.158;8.626;2023-12-22T10:42:04;8.00;99.90
16174;DHT22;14031;50.158;8.626;2023-12-22T10:44:31;7.90;99.90
16174;DHT22;14031;50.158;8.626;2023-12-22T10:47:00;7.90;99.90
16174;DHT22;14031;50.158;8.626;2023-12-22T10:49:26;7.90;99.90
16174;DHT22;14031;50.158;8.626;2023-12-22T10:51:53;8.10;99.90
16174;DHT22;14031;50.158;8.626;2023-12-22T10:54:20;8.20;99.90
16174;DHT22;14031;50.158;8.626;2023-12-22T10:56:48;8.20;99.90
16174;DHT22;14031;50.158;8.626;2023-12-22T10:59:16;8.20;99.90
16174;DHT22;14031;50.158;8.626;2023-12-22T11:01:45;8.20;99.90
16174;DHT22;14031;50.158;8.626;2023-12-22T11:04:17;8.20;99.90
16174;DHT22;14031;50.158;8.626;2023-12-22T11:06:47;8.30;99.90
16174;DHT22;14031;50.158;8.626;2023-12-22T11:09:16;8.30;99.90
16174;DHT22;14031;50.158;8.626;2023-12-22T11:11:45;8.40;99.90
16174;DHT22;14031;50.158;8.626;2023-12-22T11:14:14;8.40;99.90
16174;DHT22;14031;50.158;8.626;2023-12-22T11:16:42;8.40;99.90
16174;DHT22;14031;50.158;8.626;2023-12-22T11:19:13;8.40;99.90
16174;DHT22;14031;50.158;8.626;2023-12-22T11:21:41;8.50;99.90
16174;DHT22;14031;50.158;8.626;2023-12-22T11:24:11;8.50;99.90
16174;DHT22;14031;50.158;8.626;2023-12-22T11:26:41;8.70;99.90
16174;DHT22;14031;50.158;8.626;2023-12-22T11:29:09;8.70;99.90
16174;DHT22;14031;50.158;8.626;2023-12-22T11:31:39;8.70;99.90
16174;DHT22;14031;50.158;8.626;2023-12-22T11:34:07;8.70;99.90
16174;DHT22;14031;50.158;8.626;2023-12-22T11:36:35;8.70;99.90
16174;DHT22;14031;50.158;8.626;2023-12-22T11:39:04;8.80;99.90
16174;DHT22;14031;50.158;8.626;2023-12-22T11:41:34;8.80;99.90
16174;DHT22;14031;50.158;8.626;2023-12-22T11:44:03;8.80;99.90
16174;DHT22;14031;50.158;8.626;2023-12-22T11:46:31;8.80;99.90
16174;DHT22;14031;50.158;8.626;2023-12-22T11:49:00;8.90;99.90
16174;DHT22;14031;50.158;8.626;2023-12-22T11:51:31;8.90;99.90
16174;DHT22;14031;50.158;8.626;2023-12-22T11:54:00;8.90;99.90
16174;DHT22;14031;50.158;8.626;2023-12-22T11:56:29;9.10;99.90
16174;DHT22;14031;50.158;8.626;2023-12-22T11:58:55;8.90;99.90
16174;DHT22;14031;50.158;8.626;2023-12-22T12:01:25;8.90;99.90
16174;DHT22;14031;50.158;8.626;2023-12-22T12:03:55;8.90;99.90
16174;DHT22;14031;50.158;8.626;2023-12-22T12:06:32;8.90;99.90
16174;DHT22;14031;50.158;8.626;2023-12-22T12:09:00;8.90;99.90
16174;DHT22;14031;50.158;8.626;2023-12-22T12:14:31;9.00;99.90
16174;DHT22;14031;50.158;8.626;2023-12-22T12:17:03;9.10;99.90
16174;DHT22;14031;50.158;8.626;2023-12-22T12:19:30;9.00;99.90
16174;DHT22;14031;50.158;8.626;2023-12-22T12:21:58;9.00;99.90
16174;DHT22;14031;50.158;8.626;2023-12-22T12:24:25;8.90;99.90
16174;DHT22;14031;50.158;8.626;2023-12-22T12:26:52;8.80;99.90
16174;DHT22;14031;50.158;8.626;2023-12-22T12:29:20;8.80;99.90
16174;DHT22;14031;50.158;8.626;2023-12-22T12:31:47;8.80;99.90
16174;DHT22;14031;50.158;8.626;2023-12-22T12:34:14;8.80;99.90
16174;DHT22;14031;50.158;8.626;2023-12-22T12:36:43;8.70;99.90
16174;DHT22;14031;50.158;8.626;2023-12-22T12:39:15;8.60;99.90
16174;DHT22;14031;50.158;8.626;2023-12-22T12:41:43;8.70;99.90
16174;DHT22;14031;50.158;8.626;2023-12-22T12:44:10;8.60;99.90
16174;DHT22;14031;50.158;8.626;2023-12-22T12:46:38;8.60;99.90
16174;DHT22;14031;50.158;8.626;2023-12-22T12:49:05;8.60;99.90
16174;DHT22;14031;50.158;8.626;2023-12-22T12:51:35;8.60;99.90
16174;DHT22;14031;50.158;8.626;2023-12-22T12:54:04;8.50;99.90
16174;DHT22;14031;50.158;8.626;2023-12-22T12:56:38;8.70;99.90
16174;DHT22;14031;50.158;8.626;2023-12-22T12:59:07;8.70;99.90
16174;DHT22;14031;50.158;8.626;2023-12-22T13:01:38;8.70;99.90
16174;DHT22;14031;50.158;8.626;2023-12-22T13:04:05;8.80;99.90
16174;DHT22;14031;50.158;8.626;2023-12-22T13:06:32;8.70;99.90
16174;DHT22;14031;50.158;8.626;2023-12-22T13:08:59;8.80;99.90
16174;DHT22;14031;50.158;8.626;2023-12-22T13:11:27;8.80;99.90
16174;DHT22;14031;50.158;8.626;2023-12-22T13:13:56;8.80;99.90
16174;DHT22;14031;50.158;8.626;2023-12-22T13:16:24;9.00;99.90
16174;DHT22;14031;50.158;8.626;2023-12-22T13:18:52;8.90;99.90
16174;DHT22;14031;50.158;8.626;2023-12-22T13:21:19;8.90;99.90
16174;DHT22;14031;50.158;8.626;2023-12-22T13:23:46;9.20;99.90
16174;DHT22;14031;50.158;8.626;2023-12-22T13:26:19;9.00;99.90
16174;DHT22;14031;50.158;8.626;2023-12-22T13:28:47;9.10;99.90
16174;DHT22;14031;50.158;8.626;2023-12-22T13:31:15;9.10;99.90
16174;DHT22;14031;50.158;8.626;2023-12-22T13:33:43;9.10;99.90
16174;DHT22;14031;50.158;8.626;2023-12-22T13:36:11;9.20;99.90
16174;DHT22;14031;50.158;8.626;2023-12-22T13:38:38;9.20;99.90
16174;DHT22;14031;50.158;8.626;2023-12-22T13:41:07;9.10;99.90
16174;DHT22;14031;50.158;8.626;2023-12-22T13:43:34;9.20;99.90
16174;DHT22;14031;50.158;8.626;2023-12-22T13:46:01;9.10;99.90
16174;DHT22;14031;50.158;8.626;2023-12-22T13:48:30;9.10;99.90
16174;DHT22;14031;50.158;8.626;2023-12-22T13:50:58;9.10;99.90
16174;DHT22;14031;50.158;8.626;2023-12-22T13:53:25;9.00;99.90
16174;DHT22;14031;50.158;8.626;2023-12-22T13:55:55;9.00;99.90
16174;DHT22;14031;50.158;8.626;2023-12-22T13:58:22;9.10;99.90
16174;DHT22;14031;50.158;8.626;2023-12-22T14:00:49;9.10;99.90
16174;DHT22;14031;50.158;8.626;2023-12-22T14:03:16;9.10;99.90
16174;DHT22;14031;50.158;8.626;2023-12-22T14:05:44;9.10;99.90
16174;DHT22;14031;50.158;8.626;2023-12-22T14:08:11;9.10;99.90
16174;DHT22;14031;50.158;8.626;2023-12-22T14:10:37;9.10;99.90
16174;DHT22;14031;50.158;8.626;2023-12-22T14:13:10;9.20;99.90
16174;DHT22;14031;50.158;8.626;2023-12-22T14:15:37;9.20;99.90
16174;DHT22;14031;50.158;8.626;2023-12-22T14:18:04;9.30;99.90
16174;DHT22;14031;50.158;8.626;2023-12-22T14:20:31;9.20;99.90
16174;DHT22;14031;50.158;8.626;2023-12-22T14:22:59;9.20;99.90
16174;DHT22;14031;50.158;8.626;2023-12-22T14:25:26;9.10;99.90
16174;DHT22;14031;50.158;8.626;2023-12-22T14:27:52;9.40;99.90
16174;DHT22;14031;50.158;8.626;2023-12-22T14:30:22;9.30;99.90
16174;DHT22;14031;50.158;8.626;2023-12-22T14:32:49;9.30;99.90
16174;DHT22;14031;50.158;8.626;2023-12-22T14:35:16;9.40;99.90
16174;DHT22;14031;50.158;8.626;2023-12-22T14:37:42;9.40;99.90
16174;DHT22;14031;50.158;8.626;2023-12-22T14:40:13;9.40;99.90
16174;DHT22;14031;50.158;8.626;2023-12-22T14:42:40;9.40;99.90
16174;DHT22;14031;50.158;8.626;2023-12-22T14:45:07;9.30;99.90
16174;DHT22;14031;50.158;8.626;2023-12-22T14:47:34;9.30;99.90
16174;DHT22;14031;50.158;8.626;2023-12-22T14:50:01;9.20;99.90
16174;DHT22;14031;50.158;8.626;2023-12-22T14:52:29;9.20;99.90
16174;DHT22;14031;50.158;8.626;2023-12-22T14:54:57;9.20;99.90
16174;DHT22;14031;50.158;8.626;2023-12-22T14:57:25;9.20;99.90
16174;DHT22;14031;50.158;8.626;2023-12-22T14:59:54;9.20;99.90
16174;DHT22;14031;50.158;8.626;2023-12-22T15:02:21;9.20;99.90
16174;DHT22;14031;50.158;8.626;2023-12-22T15:04:47;9.20;99.90
16174;DHT22;14031;50.158;8.626;2023-12-22T15:07:15;9.20;99.90
16174;DHT22;14031;50.158;8.626;2023-12-22T15:09:42;9.10;99.90
16174;DHT22;14031;50.158;8.626;2023-12-22T15:12:08;9.10;99.90
16174;DHT22;14031;50.158;8.626;2023-12-22T15:14:37;9.10;99.90
16174;DHT22;14031;50.158;8.626;2023-12-22T15:17:04;9.10;99.90
16174;DHT22;14031;50.158;8.626;2023-12-22T15:19:30;9.10;99.90
16174;DHT22;14031;50.158;8.626;2023-12-22T15:21:57;9.20;99.90
16174;DHT22;14031;50.158;8.626;2023-12-22T15:24:24;9.10;99.90
16174;DHT22;14031;50.158;8.626;2023-12-22T15:26:51;9.20;99.90
16174;DHT22;14031;50.158;8.626;2023-12-22T15:29:18;9.20;99.90
16174;DHT22;14031;50.158;8.626;2023-12-22T15:31:48;9.20;99.90
16174;DHT22;14031;50.158;8.626;2023-12-22T15:34:15;9.20;99.90
16174;DHT22;14031;50.158;8.626;2023-12-22T15:36:42;9.30;99.90
16174;DHT22;14031;50.158;8.626;2023-12-22T15:39:09;9.30;99.90
16174;DHT22;14031;50.158;8.626;2023-12-22T15:41:35;9.40;99.90
16174;DHT22;14031;50.158;8.626;2023-12-22T15:44:02;9.40;99.90
16174;DHT22;14031;50.158;8.626;2023-12-22T15:46:29;9.40;99.90
16174;DHT22;14031;50.158;8.626;2023-12-22T15:48:57;9.50;99.90
16174;DHT22;14031;50.158;8.626;2023-12-22T15:51:24;9.50;99.90